UKLL/LWO METAR and TAF weather

Enter ICAO airport designator
Station Type Date Time Source
UKLL METAR 2021/01/17 19:00 UTC NOAA

UKLL 171900Z 32005MPS 9000 -SHSN SCT013CB BKN013 M08/M10 Q1017 R31/450545 NOSIG


Station Type Date Time Source
UKLL Decoded METAR 2021/01/17 19:00 UTC NOAA

L'Viv, Ukraine (UKLL) 49-49N 023-57E 323M
Jan 17, 2021 - 02:00 PM EST / 2021.01.17 1900 UTC
Wind: from the NW (320 degrees) at 11 MPH (10 KT):0
Visibility: 5 mile(s):0
Sky conditions: mostly cloudy
Weather: light snow showers; Cumulonimbus clouds observed
Temperature: 17 F (-8 C)
Windchill: 5 F (-15 C):1
Dew Point: 14 F (-10 C)
Relative Humidity: 85%
Pressure (altimeter): 30.03 in. Hg (1017 hPa)
ob: UKLL 171900Z 32005MPS 9000 -SHSN SCT013CB BKN013 M08/M10 Q1017 R31/450545 NOSIG
cycle: 19

Station Type Date Time Source
UKLL TAF 2021/01/17 18:12 UTC NOAA

TAF UKLL 171704Z 1718/1818 34004MPS 4000 BR BKN010 SCT020CB
TEMPO 1718/1806 36006MPS 1100 -SHSN BR BKN004 BKN015CB
TEMPO 1806/1818 2100 -SHSN SCT004 BKN007 BKN017CB

Example: see airport list